NCAR-RAP Real-Time Weather Data

Output produced by METARs form (30 August 2014  16:11 UTC)
found at http://weather.rap.ucar.edu/surface/
 
Conditions at: K4O4 observed 30 August 2014  15:55 UTC
Temperature: 27.0°C (81°F)
Dewpoint: 20.0°C (68°F) [RH = 66%]
Pressure (altimeter): 29.99 inches Hg (1015.7 mb)
Winds: from the SW (230 degrees) at 3 MPH (3 knots; 1.6 m/s)
Visibility: 10 or more miles (16+ km)
Ceiling: 3100 feet AGL
Clouds: scattered clouds at 2500 feet AGL
broken clouds at 3100 feet AGL
Present Weather: automated observation with no human augmentation;
there may or may not be significant weather present at this time
K4O4 301555Z AUTO 23003KT 10SM SCT025 BKN031 27/20 A2999 RMK AO2